Time;durP1;ratioP1;P1;durP2;ratioP2;P2;SDS_P1;SDS_P2;PMS_P1;PMS_P2;Temp;Humidity;BMP_temperature;BMP_pressure;BME280_temperature;BME280_humidity;BME280_pressure;Samples;Min_cycle;Max_cycle;Signal;HPM_P1;HPM_P2
2023/10/06 00:00:41;;;;;;;7.38;5.15;;;;;;;14.18;62.82;95427.59;5093161;28;20123;-72
2023/10/06 00:03:10;;;;;;;10.30;5.07;;;;;;;14.25;62.54;95441.78;5079725;28;20402;-73
2023/10/06 00:05:40;;;;;;;8.55;5.15;;;;;;;14.14;63.25;95423.63;5075376;28;20020;-72
2023/10/06 00:08:10;;;;;;;9.15;5.38;;;;;;;14.28;63.12;95438.91;5092067;28;20020;-72
2023/10/06 00:10:37;;;;;;;6.80;4.53;;;;;;;14.16;62.62;95426.94;5085531;28;20028;-73
2023/10/06 00:13:05;;;;;;;8.23;4.95;;;;;;;14.09;63.26;95434.44;5085816;28;20548;-72
2023/10/06 00:15:39;;;;;;;8.77;4.80;;;;;;;13.85;63.18;95419.13;5074460;28;20039;-72
2023/10/06 00:18:09;;;;;;;8.90;4.75;;;;;;;13.99;62.44;95425.78;5089911;28;20425;-72
2023/10/06 00:20:45;;;;;;;7.15;4.38;;;;;;;13.91;62.45;95434.28;5085456;28;20028;-72
2023/10/06 00:23:14;;;;;;;8.77;4.47;;;;;;;13.94;62.35;95441.03;5070960;28;20036;-73
2023/10/06 00:25:42;;;;;;;8.85;4.75;;;;;;;13.89;62.85;95435.38;5070477;28;20483;-73
2023/10/06 00:28:18;;;;;;;6.45;4.45;;;;;;;13.92;62.69;95433.31;5075804;28;20032;-72
2023/10/06 00:30:46;;;;;;;8.43;4.88;;;;;;;13.88;62.78;95424.09;5084542;28;20502;-72
2023/10/06 00:33:13;;;;;;;8.30;4.55;;;;;;;13.94;62.66;95422.75;5091550;28;20040;-72
2023/10/06 00:35:39;;;;;;;9.18;5.07;;;;;;;13.93;62.87;95418.47;5087047;28;20017;-73
2023/10/06 00:38:12;;;;;;;8.18;4.80;;;;;;;13.84;63.14;95418.28;5054484;28;20028;-73
2023/10/06 00:40:42;;;;;;;9.38;4.85;;;;;;;13.89;62.83;95419.69;5072252;28;20029;-73
2023/10/06 00:43:08;;;;;;;8.15;4.75;;;;;;;13.88;62.67;95418.06;5087782;28;20970;-72
2023/10/06 00:45:39;;;;;;;9.45;4.82;;;;;;;14.00;62.29;95416.97;5091257;28;20371;-73
2023/10/06 00:48:10;;;;;;;9.05;5.00;;;;;;;13.95;62.56;95408.72;5075091;28;20020;-73
2023/10/06 00:50:36;;;;;;;7.32;4.70;;;;;;;13.82;62.78;95406.34;5089032;28;20059;-73
2023/10/06 00:53:04;;;;;;;6.80;4.65;;;;;;;13.83;62.61;95416.66;5091357;28;20020;-73
2023/10/06 00:55:30;;;;;;;12.52;4.93;;;;;;;13.95;62.48;95412.13;5074463;28;20028;-72
2023/10/06 00:57:55;;;;;;;7.07;4.60;;;;;;;13.76;62.78;95404.25;5074242;28;20038;-72
2023/10/06 01:00:21;;;;;;;8.88;5.03;;;;;;;13.83;63.12;95415.81;5063556;28;20472;-72
2023/10/06 01:02:48;;;;;;;8.88;4.65;;;;;;;13.88;62.60;95411.03;5074054;28;20035;-72
2023/10/06 01:05:16;;;;;;;7.10;4.60;;;;;;;13.89;62.48;95422.31;5056921;28;20028;-73
2023/10/06 01:07:45;;;;;;;8.07;5.05;;;;;;;13.87;62.92;95419.81;5078565;28;20044;-72
2023/10/06 01:10:17;;;;;;;7.60;4.78;;;;;;;13.81;63.23;95422.97;5052642;28;20054;-73
2023/10/06 01:12:43;;;;;;;10.82;5.15;;;;;;;13.94;62.87;95418.34;5069164;28;20074;-73
2023/10/06 01:15:16;;;;;;;11.85;5.03;;;;;;;13.82;62.98;95425.44;5070990;28;20043;-72
2023/10/06 01:17:48;;;;;;;8.20;4.88;;;;;;;13.81;63.35;95428.19;5069402;28;20536;-72
2023/10/06 01:20:30;;;;;;;9.00;5.70;;;;;;;13.80;63.24;95413.47;5070251;28;20087;-73
2023/10/06 01:22:56;;;;;;;7.63;5.30;;;;;;;13.81;63.59;95421.16;5075232;28;20458;-72
2023/10/06 01:25:23;;;;;;;8.75;4.95;;;;;;;13.84;63.30;95428.72;5090371;28;20039;-73
2023/10/06 01:27:50;;;;;;;9.35;5.25;;;;;;;13.81;63.42;95423.78;5073627;28;20052;-72
2023/10/06 01:32:43;;;;;;;8.85;5.32;;;;;;;13.73;63.87;95421.00;5090326;28;20070;-73
2023/10/06 01:35:12;;;;;;;8.85;5.82;;;;;;;13.68;63.84;95417.97;5089580;28;20106;-73
2023/10/06 01:37:40;;;;;;;10.10;4.93;;;;;;;13.79;64.02;95417.88;5072078;28;20035;-73
2023/10/06 01:40:15;;;;;;;7.47;4.90;;;;;;;13.72;63.76;95406.31;5090290;28;20086;-73
2023/10/06 01:42:40;;;;;;;8.20;4.72;;;;;;;13.58;64.19;95407.47;5090415;28;20047;-73
2023/10/06 01:45:14;;;;;;;9.60;5.50;;;;;;;13.69;64.48;95417.00;5090089;28;20490;-73
2023/10/06 01:47:40;;;;;;;9.38;5.40;;;;;;;13.61;64.45;95427.28;5086759;28;20032;-73
2023/10/06 01:50:06;;;;;;;9.52;5.72;;;;;;;13.66;64.93;95427.72;5058597;28;20029;-73
2023/10/06 01:52:31;;;;;;;9.52;5.75;;;;;;;13.68;65.05;95424.97;5066094;28;20418;-72
2023/10/06 01:55:03;;;;;;;9.38;5.45;;;;;;;13.81;64.86;95423.78;5087802;28;20028;-73
2023/10/06 01:57:28;;;;;;;9.80;4.90;;;;;;;13.61;65.26;95432.50;5091130;28;20073;-73
2023/10/06 01:59:53;;;;;;;8.18;4.95;;;;;;;13.58;65.52;95430.16;5072885;28;20051;-72
2023/10/06 02:02:23;;;;;;;8.50;5.57;;;;;;;13.74;64.67;95427.06;5091238;28;20020;-72
2023/10/06 02:04:50;;;;;;;8.13;5.43;;;;;;;13.61;65.11;95435.09;5085908;28;20038;-73
2023/10/06 02:07:18;;;;;;;10.25;5.82;;;;;;;13.41;65.57;95427.19;5071698;28;20533;-73
2023/10/06 02:09:43;;;;;;;7.70;5.20;;;;;;;13.51;65.70;95442.06;5069937;28;20029;-72
2023/10/06 02:12:09;;;;;;;8.80;5.30;;;;;;;13.22;66.07;95434.88;5070480;28;20418;-72
2023/10/06 02:14:35;;;;;;;8.65;5.50;;;;;;;13.27;66.34;95447.56;5069684;28;20498;-73
2023/10/06 02:17:08;;;;;;;9.90;5.45;;;;;;;13.57;65.88;95452.00;5069240;28;20114;-73
2023/10/06 02:19:34;;;;;;;9.65;5.80;;;;;;;13.50;65.73;95432.59;5091244;28;20043;-73
2023/10/06 02:21:59;;;;;;;9.95;5.22;;;;;;;13.49;66.16;95444.81;5076830;28;20029;-72
2023/10/06 02:24:25;;;;;;;7.63;5.28;;;;;;;13.53;66.08;95440.97;5054494;28;20044;-72
2023/10/06 02:26:57;;;;;;;9.38;5.28;;;;;;;13.81;65.36;95457.72;5069487;28;20028;-72
2023/10/06 02:29:23;;;;;;;9.75;5.40;;;;;;;13.80;65.24;95447.44;5069557;28;20028;-72
2023/10/06 02:31:52;;;;;;;8.05;5.55;;;;;;;13.86;65.15;95457.34;5069459;28;20472;-72
2023/10/06 02:34:38;;;;;;;7.88;5.15;;;;;;;13.68;65.28;95453.69;5069443;28;20272;-72
2023/10/06 02:37:06;;;;;;;7.90;5.22;;;;;;;13.59;65.55;95450.88;5077123;28;20434;-73
2023/10/06 02:39:34;;;;;;;7.90;5.38;;;;;;;13.62;65.82;95463.72;5069378;28;20043;-72
2023/10/06 02:42:01;;;;;;;10.93;5.22;;;;;;;13.68;65.67;95466.72;5069362;28;20559;-72
2023/10/06 02:44:29;;;;;;;8.00;5.30;;;;;;;13.48;66.32;95469.25;5070080;28;20112;-72
2023/10/06 02:46:55;;;;;;;9.05;4.95;;;;;;;13.56;65.57;95460.78;5089471;28;20563;-73
2023/10/06 02:49:35;;;;;;;7.15;5.05;;;;;;;13.55;65.24;95461.75;5093393;28;20028;-72
2023/10/06 02:52:01;;;;;;;7.63;4.97;;;;;;;13.52;65.11;95459.38;5084187;28;20029;-73
2023/10/06 02:54:29;;;;;;;8.40;5.45;;;;;;;13.52;64.82;95467.22;5073211;28;20047;-72
2023/10/06 02:56:55;;;;;;;9.85;4.97;;;;;;;13.75;64.39;95455.66;5073131;28;20025;-73
2023/10/06 02:59:22;;;;;;;6.05;4.50;;;;;;;13.71;63.95;95453.44;5072878;28;20483;-72
2023/10/06 03:01:52;;;;;;;9.73;5.15;;;;;;;13.60;64.05;95455.16;5092569;28;20058;-72
2023/10/06 03:04:21;;;;;;;7.40;5.13;;;;;;;13.60;64.45;95455.16;5076457;28;20027;-73
2023/10/06 03:06:53;;;;;;;9.10;5.10;;;;;;;13.66;64.28;95440.78;5083265;28;20060;-72
2023/10/06 03:09:20;;;;;;;9.43;5.47;;;;;;;13.80;64.63;95460.47;5065333;28;20560;-73
2023/10/06 03:11:49;;;;;;;7.05;4.82;;;;;;;14.01;63.70;95455.19;5062454;28;20403;-73
2023/10/06 03:14:23;;;;;;;9.10;5.28;;;;;;;13.72;64.13;95458.53;5069237;28;20089;-72
2023/10/06 03:16:51;;;;;;;6.75;4.43;;;;;;;13.89;64.10;95459.69;5077219;28;20021;-73
2023/10/06 03:19:18;;;;;;;7.53;4.68;;;;;;;13.83;64.89;95447.16;5072516;28;20035;-73
2023/10/06 03:21:45;;;;;;;7.50;5.28;;;;;;;13.82;65.12;95455.97;5090115;28;20034;-73
2023/10/06 03:24:15;;;;;;;9.15;5.45;;;;;;;13.78;65.77;95465.00;5075926;28;20044;-73
2023/10/06 03:26:45;;;;;;;9.48;5.38;;;;;;;13.97;64.34;95470.31;5089221;28;20024;-73
2023/10/06 03:29:11;;;;;;;6.97;4.63;;;;;;;14.00;64.97;95472.66;5075515;28;20489;-73
2023/10/06 03:31:45;;;;;;;10.05;5.85;;;;;;;14.07;65.07;95471.19;5091691;28;20028;-74
2023/10/06 03:34:16;;;;;;;10.95;5.18;;;;;;;14.06;64.78;95466.06;5093733;28;20038;-73
2023/10/06 03:36:46;;;;;;;6.60;4.70;;;;;;;13.88;65.31;95465.06;5089211;28;20024;-73
2023/10/06 03:39:13;;;;;;;7.80;5.22;;;;;;;13.95;65.60;95467.00;5091459;28;20420;-73
2023/10/06 03:41:41;;;;;;;9.60;4.90;;;;;;;13.80;65.58;95463.09;5091832;28;20508;-72
2023/10/06 03:44:06;;;;;;;10.20;5.03;;;;;;;13.87;66.04;95464.22;5070523;28;20037;-73
2023/10/06 03:46:38;;;;;;;8.88;5.90;;;;;;;13.94;65.93;95464.53;5074008;28;20055;-72
2023/10/06 03:49:13;;;;;;;8.45;4.97;;;;;;;13.90;65.98;95468.34;5066427;28;20032;-73
2023/10/06 03:51:39;;;;;;;11.52;5.20;;;;;;;13.71;66.05;95464.72;5083886;28;20039;-73
2023/10/06 03:54:04;;;;;;;10.02;5.35;;;;;;;13.61;67.10;95469.03;5084202;28;20233;-73
2023/10/06 03:56:30;;;;;;;8.73;5.40;;;;;;;13.77;66.14;95458.13;5085607;28;20505;-72
2023/10/06 03:58:56;;;;;;;8.13;4.47;;;;;;;13.74;66.76;95469.66;5074019;28;20599;-73
2023/10/06 04:01:27;;;;;;;13.88;5.03;;;;;;;13.54;67.00;95465.28;5080102;28;20056;-72
2023/10/06 04:03:58;;;;;;;6.85;4.63;;;;;;;13.73;66.64;95451.50;5068286;28;20028;-73
2023/10/06 04:06:25;;;;;;;11.45;4.90;;;;;;;13.66;66.65;95466.06;5069962;28;20039;-73
2023/10/06 04:08:52;;;;;;;7.82;5.25;;;;;;;13.63;66.63;95454.09;5071213;28;20093;-73
2023/10/06 04:11:18;;;;;;;9.55;5.82;;;;;;;13.43;67.37;95461.00;5078163;28;20043;-72
2023/10/06 04:13:44;;;;;;;8.80;5.15;;;;;;;13.27;67.93;95469.25;5074871;28;20041;-72
2023/10/06 04:16:09;;;;;;;8.80;5.35;;;;;;;13.38;67.68;95450.09;5079901;28;20464;-73
2023/10/06 04:18:34;;;;;;;6.85;5.00;;;;;;;13.41;67.52;95457.69;5088726;28;20047;-73
2023/10/06 04:21:00;;;;;;;7.70;5.30;;;;;;;13.31;67.88;95468.03;5057270;28;20571;-73
2023/10/06 04:23:25;;;;;;;10.02;6.25;;;;;;;13.31;68.16;95462.81;5065526;28;20036;-72
2023/10/06 04:25:57;;;;;;;7.93;5.38;;;;;;;13.07;68.62;95464.84;5087870;28;20028;-73
2023/10/06 04:28:24;;;;;;;8.57;5.30;;;;;;;13.20;68.36;95470.69;5080728;28;20085;-72
2023/10/06 04:30:49;;;;;;;8.27;5.43;;;;;;;12.86;68.20;95431.75;5070633;28;20078;-72
2023/10/06 04:33:16;;;;;;;6.68;4.85;;;;;;;13.07;68.48;95475.28;5075209;28;20028;-73
2023/10/06 04:38:29;;;;;;;10.52;5.95;;;;;;;12.43;69.73;95450.88;5071173;28;20139;-72
2023/10/06 04:40:58;;;;;;;7.63;5.03;;;;;;;12.70;69.91;95486.06;5087733;28;20459;-73
2023/10/06 04:43:24;;;;;;;8.43;5.80;;;;;;;12.71;69.90;95482.53;5082232;28;20035;-72
2023/10/06 04:45:50;;;;;;;10.10;5.93;;;;;;;12.48;70.54;95480.00;5074009;28;20029;-72
2023/10/06 04:48:18;;;;;;;8.32;5.18;;;;;;;12.80;69.92;95494.00;5054715;28;20063;-73
2023/10/06 04:50:44;;;;;;;7.97;5.28;;;;;;;12.20;71.22;95494.38;5077224;28;20071;-73
2023/10/06 04:53:11;;;;;;;10.18;5.80;;;;;;;12.32;71.69;95500.41;5091204;28;20139;-72
2023/10/06 04:55:38;;;;;;;10.00;5.05;;;;;;;12.38;71.26;95502.50;5062310;28;20490;-73
2023/10/06 04:58:13;;;;;;;8.88;5.57;;;;;;;12.26;71.64;95486.09;5088423;28;20035;-73
2023/10/06 05:00:39;;;;;;;9.18;5.15;;;;;;;12.56;70.95;95504.59;5079506;28;20056;-73
2023/10/06 05:03:06;;;;;;;7.35;4.93;;;;;;;12.56;71.02;95504.59;5089315;28;20069;-72
2023/10/06 05:05:37;;;;;;;8.98;5.50;;;;;;;12.21;72.12;95506.44;5072127;28;20533;-73
2023/10/06 05:08:04;;;;;;;6.70;4.93;;;;;;;12.33;72.24;95503.84;5089077;28;20024;-72
2023/10/06 05:10:31;;;;;;;7.30;5.57;;;;;;;12.65;71.42;95520.34;5079086;28;20555;-73
2023/10/06 05:12:56;;;;;;;8.50;5.47;;;;;;;12.50;71.84;95519.78;5090349;28;20551;-72
2023/10/06 05:15:26;;;;;;;6.72;5.18;;;;;;;12.58;71.79;95524.38;5088265;28;20046;-73
2023/10/06 05:17:58;;;;;;;7.95;5.43;;;;;;;12.52;71.98;95525.69;5062158;28;20502;-72
2023/10/06 05:20:29;;;;;;;9.75;5.72;;;;;;;12.70;71.58;95530.38;5066228;28;20583;-73
2023/10/06 05:22:58;;;;;;;10.25;5.32;;;;;;;12.77;71.62;95528.13;5078819;28;20039;-73
2023/10/06 05:25:26;;;;;;;10.77;6.65;;;;;;;12.48;72.09;95516.47;5082463;28;20107;-73
2023/10/06 05:27:53;;;;;;;9.85;5.90;;;;;;;12.90;71.21;95532.25;5082699;28;20025;-72
2023/10/06 05:30:21;;;;;;;11.93;5.95;;;;;;;12.88;70.82;95525.50;5076122;28;20568;-73
2023/10/06 05:32:47;;;;;;;11.07;5.97;;;;;;;12.85;70.91;95529.19;5081675;28;20024;-73
2023/10/06 05:35:13;;;;;;;9.07;5.60;;;;;;;12.86;71.27;95535.22;5081564;28;20421;-73
2023/10/06 05:37:41;;;;;;;12.57;6.22;;;;;;;12.90;71.69;95540.06;5087054;28;20024;-73
2023/10/06 05:40:12;;;;;;;11.45;6.32;;;;;;;13.07;70.84;95543.09;5077935;28;20028;-72
2023/10/06 05:42:40;;;;;;;12.98;6.20;;;;;;;12.93;71.57;95537.22;5083446;28;20086;-73
2023/10/06 05:45:15;;;;;;;8.75;5.63;;;;;;;13.31;71.26;95550.72;5081934;28;20577;-73
2023/10/06 05:47:58;;;;;;;8.18;5.60;;;;;;;13.53;70.64;95549.78;5075812;28;20532;-73
2023/10/06 05:50:27;;;;;;;9.98;5.95;;;;;;;13.51;70.71;95543.84;5081584;28;20034;-73
2023/10/06 05:52:59;;;;;;;8.95;5.20;;;;;;;13.75;70.52;95548.81;5076406;28;20039;-73
2023/10/06 05:55:37;;;;;;;11.05;5.85;;;;;;;13.81;69.83;95556.13;5068577;28;20021;-72
2023/10/06 05:58:04;;;;;;;8.77;5.65;;;;;;;14.03;69.83;95560.38;5071994;28;20033;-73
2023/10/06 06:00:30;;;;;;;9.68;5.70;;;;;;;14.17;69.31;95560.03;5050363;28;20143;-74
2023/10/06 06:02:58;;;;;;;9.02;5.18;;;;;;;14.25;68.76;95548.94;5074829;28;20035;-74
2023/10/06 06:05:29;;;;;;;9.52;6.05;;;;;;;14.43;68.51;95560.41;5083930;28;20035;-74
2023/10/06 06:07:59;;;;;;;7.50;5.25;;;;;;;14.51;68.25;95567.56;5069853;28;20033;-73
2023/10/06 06:10:24;;;;;;;9.50;5.50;;;;;;;14.84;67.07;95563.84;5076873;28;20040;-72
2023/10/06 06:12:50;;;;;;;8.25;5.40;;;;;;;14.87;66.49;95550.50;5058220;28;20051;-71
2023/10/06 06:15:16;;;;;;;10.38;6.82;;;;;;;14.75;66.07;95559.44;5078229;28;20039;-70
2023/10/06 06:17:42;;;;;;;13.73;6.82;;;;;;;15.09;65.70;95572.97;5089027;28;20107;-72
2023/10/06 06:20:14;;;;;;;10.30;6.32;;;;;;;15.06;66.76;95560.16;5054408;28;20127;-71
2023/10/06 06:22:40;;;;;;;8.93;5.57;;;;;;;15.30;66.11;95561.56;5085090;28;20028;-73
2023/10/06 06:25:06;;;;;;;8.52;5.53;;;;;;;15.87;65.03;95562.47;5070191;28;20048;-73
2023/10/06 06:27:32;;;;;;;10.27;6.13;;;;;;;16.36;63.01;95568.41;5050989;28;20020;-73
2023/10/06 06:29:58;;;;;;;12.07;6.50;;;;;;;17.33;59.49;95573.13;5082813;28;20025;-73
2023/10/06 06:32:25;;;;;;;11.07;6.20;;;;;;;17.96;55.12;95568.72;5053269;28;20572;-74
2023/10/06 06:34:51;;;;;;;7.32;5.00;;;;;;;18.63;53.17;95572.38;5083769;28;20027;-72
2023/10/06 06:37:16;;;;;;;7.72;4.78;;;;;;;19.15;51.77;95566.97;5088875;28;20391;-73
2023/10/06 06:39:44;;;;;;;8.63;5.18;;;;;;;19.94;50.10;95577.91;5070566;28;20028;-72
2023/10/06 06:42:13;;;;;;;11.38;5.70;;;;;;;19.29;50.20;95573.41;5083670;28;20043;-72
2023/10/06 06:44:39;;;;;;;9.15;5.30;;;;;;;20.63;48.45;95564.25;5085090;28;20032;-72
2023/10/06 06:47:05;;;;;;;8.60;5.47;;;;;;;21.11;46.57;95575.59;5082251;28;20025;-73
2023/10/06 06:49:31;;;;;;;14.07;6.45;;;;;;;21.71;45.52;95585.47;5086075;28;20054;-72
2023/10/06 06:51:58;;;;;;;8.95;5.68;;;;;;;22.16;44.35;95573.16;5086200;28;20028;-72
2023/10/06 06:54:27;;;;;;;9.20;5.07;;;;;;;22.48;43.29;95581.78;5066186;28;20035;-72
2023/10/06 06:56:53;;;;;;;11.43;4.85;;;;;;;22.64;42.59;95583.44;5079791;28;20032;-73
2023/10/06 06:59:19;;;;;;;9.63;5.13;;;;;;;22.44;42.49;95583.16;5075629;28;20056;-73
2023/10/06 07:01:47;;;;;;;7.97;4.88;;;;;;;22.65;42.57;95569.19;5079823;28;20048;-71
2023/10/06 07:04:13;;;;;;;9.88;5.30;;;;;;;22.55;42.97;95584.56;5087287;28;20103;-71
2023/10/06 07:06:38;;;;;;;11.55;5.18;;;;;;;22.92;42.70;95583.59;5084326;28;20028;-71
2023/10/06 07:09:12;;;;;;;10.48;4.97;;;;;;;22.94;41.43;95565.69;5081764;28;20418;-71
2023/10/06 07:11:38;;;;;;;10.30;5.10;;;;;;;22.93;41.92;95585.25;5084362;28;20021;-71
2023/10/06 07:14:04;;;;;;;7.95;4.38;;;;;;;23.48;40.80;95589.16;5077719;28;20032;-73
2023/10/06 07:16:31;;;;;;;9.23;4.78;;;;;;;23.89;40.36;95588.56;5070249;28;20032;-73
2023/10/06 07:18:56;;;;;;;7.65;5.05;;;;;;;23.56;40.59;95588.22;5077646;28;20029;-73
2023/10/06 07:21:22;;;;;;;7.53;4.82;;;;;;;23.46;40.14;95546.13;5075933;28;20024;-73
2023/10/06 07:23:51;;;;;;;6.88;4.75;;;;;;;22.69;40.78;95491.03;5083929;28;20036;-72
2023/10/06 07:26:17;;;;;;;6.25;4.50;;;;;;;23.40;40.62;95589.28;5087012;28;20026;-72
2023/10/06 07:28:42;;;;;;;10.55;4.80;;;;;;;23.34;41.13;95579.44;5088312;28;20020;-73
2023/10/06 07:31:10;;;;;;;11.82;5.18;;;;;;;23.02;41.78;95578.88;5083258;28;20032;-72
2023/10/06 07:33:35;;;;;;;8.38;4.63;;;;;;;22.82;42.04;95575.13;5068421;28;20039;-73
2023/10/06 07:36:01;;;;;;;11.70;4.97;;;;;;;22.17;43.35;95576.63;5077575;28;20028;-73
2023/10/06 07:38:26;;;;;;;9.25;4.78;;;;;;;22.61;42.89;95571.38;5079391;28;20028;-72
2023/10/06 07:40:52;;;;;;;10.30;5.22;;;;;;;22.28;43.19;95571.75;5078049;28;20482;-73
2023/10/06 07:43:17;;;;;;;9.85;5.07;;;;;;;21.59;43.87;95569.19;5079689;28;20405;-72
2023/10/06 07:45:43;;;;;;;8.98;4.55;;;;;;;21.34;45.39;95565.88;5059756;28;20101;-72
2023/10/06 07:48:09;;;;;;;12.32;5.32;;;;;;;21.50;45.10;95564.13;5063866;28;20040;-72
2023/10/06 07:50:35;;;;;;;9.82;4.90;;;;;;;21.20;45.72;95572.75;5057961;28;20501;-72
2023/10/06 07:53:00;;;;;;;6.97;4.55;;;;;;;21.37;46.00;95570.03;5083981;28;20418;-73
2023/10/06 07:55:26;;;;;;;8.45;5.03;;;;;;;21.50;45.39;95572.88;5056888;28;20864;-72
2023/10/06 07:57:51;;;;;;;9.38;5.35;;;;;;;21.46;45.31;95568.97;5090371;28;20552;-73
2023/10/06 08:00:30;;;;;;;7.82;5.47;;;;;;;21.55;45.28;95567.91;5055327;28;20097;-73
2023/10/06 08:02:59;;;;;;;8.77;4.82;;;;;;;21.38;45.49;95551.34;5078336;28;20024;-73
2023/10/06 08:05:24;;;;;;;8.32;4.70;;;;;;;21.37;45.63;95560.28;5072255;28;20467;-73
2023/10/06 08:07:50;;;;;;;13.00;4.85;;;;;;;21.33;46.00;95558.13;5054936;28;20039;-73
2023/10/06 08:10:16;;;;;;;10.00;5.28;;;;;;;21.47;45.04;95554.75;5084642;28;20466;-73
2023/10/06 08:12:43;;;;;;;9.35;5.13;;;;;;;21.60;45.29;95567.38;5067168;28;20430;-73
2023/10/06 08:15:09;;;;;;;8.27;4.72;;;;;;;21.60;44.80;95565.53;5085267;28;20104;-72
2023/10/06 08:17:38;;;;;;;7.47;4.80;;;;;;;21.59;44.24;95557.78;5083266;28;20028;-73
2023/10/06 08:20:05;;;;;;;7.68;4.90;;;;;;;21.69;44.55;95561.00;5069977;28;20032;-72
2023/10/06 08:22:33;;;;;;;7.40;5.05;;;;;;;21.54;45.20;95563.63;5088988;28;20565;-73
2023/10/06 08:25:05;;;;;;;7.03;4.95;;;;;;;21.45;44.87;95561.19;5088824;28;20040;-72
2023/10/06 08:27:34;;;;;;;10.45;5.00;;;;;;;21.33;45.41;95563.41;5075908;28;20120;-74
2023/10/06 08:29:59;;;;;;;8.88;4.63;;;;;;;21.28;45.18;95568.38;5078704;28;20028;-72
2023/10/06 08:32:24;;;;;;;8.25;5.43;;;;;;;21.18;45.48;95571.25;5086284;28;20027;-73
2023/10/06 08:34:51;;;;;;;7.75;5.07;;;;;;;21.38;45.09;95572.47;5072533;28;20464;-74
2023/10/06 08:37:16;;;;;;;8.05;5.00;;;;;;;20.96;45.38;95522.69;5066461;28;20032;-73
2023/10/06 08:39:44;;;;;;;12.18;5.38;;;;;;;20.81;46.04;95561.38;5089383;28;20161;-74
2023/10/06 08:42:15;;;;;;;8.85;5.47;;;;;;;20.93;46.59;95573.22;5072729;28;20036;-73
2023/10/06 08:44:40;;;;;;;9.10;5.18;;;;;;;20.79;47.14;95574.75;5088378;28;20036;-74
2023/10/06 08:47:09;;;;;;;11.77;5.57;;;;;;;20.72;47.45;95560.59;5048089;28;20029;-75
2023/10/06 08:49:35;;;;;;;8.82;5.47;;;;;;;20.52;46.68;95575.97;5061740;28;20400;-73
2023/10/06 08:52:00;;;;;;;9.05;5.78;;;;;;;20.50;47.24;95555.06;5046070;28;20035;-75
2023/10/06 08:54:26;;;;;;;11.63;5.30;;;;;;;20.92;46.49;95575.03;5051751;28;20506;-73
2023/10/06 08:56:52;;;;;;;7.38;5.43;;;;;;;20.72;46.52;95577.25;5086277;28;20032;-73
2023/10/06 08:59:20;;;;;;;12.32;5.65;;;;;;;20.63;47.01;95577.47;5091231;28;20055;-74
2023/10/06 09:01:45;;;;;;;11.30;5.63;;;;;;;20.80;46.38;95565.84;5069198;28;20056;-73
2023/10/06 09:04:10;;;;;;;9.82;5.38;;;;;;;20.75;46.90;95570.81;5088287;28;20513;-73
2023/10/06 09:06:38;;;;;;;8.15;5.63;;;;;;;20.71;46.85;95564.22;5070735;28;20024;-72
2023/10/06 09:09:04;;;;;;;9.57;5.35;;;;;;;20.57;46.65;95564.94;5073913;28;20024;-72
2023/10/06 09:11:38;;;;;;;7.47;5.50;;;;;;;20.34;46.93;95563.00;5087535;28;20101;-71
2023/10/06 09:14:07;;;;;;;10.75;5.57;;;;;;;20.22;47.27;95543.25;5053544;28;20039;-72
2023/10/06 09:17:01;;;;;;;7.95;5.47;;;;;;;20.31;47.09;95537.78;5085916;28;20047;-73
2023/10/06 09:19:33;;;;;;;10.70;5.30;;;;;;;20.46;46.97;95548.44;5089178;28;20135;-73
2023/10/06 09:22:02;;;;;;;9.95;5.50;;;;;;;20.43;47.48;95567.25;5073370;28;20402;-72
2023/10/06 09:24:29;;;;;;;8.32;5.93;;;;;;;20.51;47.21;95564.59;5071858;28;20100;-72
2023/10/06 09:26:55;;;;;;;6.95;5.60;;;;;;;20.43;46.49;95532.97;5060880;28;20115;-72
2023/10/06 09:29:35;;;;;;;9.20;5.50;;;;;;;20.78;46.47;95556.44;5067760;28;20029;-72
2023/10/06 09:32:01;;;;;;;8.50;5.70;;;;;;;20.59;46.56;95568.22;5080262;28;20093;-71
2023/10/06 09:34:27;;;;;;;9.30;5.70;;;;;;;20.60;46.26;95559.31;5088481;28;20032;-71
2023/10/06 09:36:52;;;;;;;8.80;5.70;;;;;;;20.69;46.66;95553.00;5088078;28;20024;-72
2023/10/06 09:39:32;;;;;;;8.25;5.30;;;;;;;20.61;46.17;95547.78;5088118;28;20043;-71
2023/10/06 09:42:00;;;;;;;11.15;6.43;;;;;;;20.60;46.05;95546.13;5089748;28;20077;-72
2023/10/06 09:44:25;;;;;;;8.32;5.47;;;;;;;21.04;44.81;95537.66;5055039;28;20032;-71
2023/10/06 09:46:53;;;;;;;11.23;6.05;;;;;;;20.78;45.30;95530.03;5068840;28;20044;-72
2023/10/06 09:49:19;;;;;;;8.20;5.32;;;;;;;20.74;46.00;95543.59;5087342;28;20033;-73
2023/10/06 09:51:45;;;;;;;8.25;5.85;;;;;;;20.67;45.68;95541.78;5067631;28;20036;-72
2023/10/06 09:54:12;;;;;;;9.20;5.57;;;;;;;20.66;45.71;95532.25;5069757;28;20024;-73
2023/10/06 09:56:40;;;;;;;10.02;5.97;;;;;;;20.66;45.59;95537.53;5068784;28;20055;-74
2023/10/06 09:59:07;;;;;;;7.95;6.07;;;;;;;20.88;45.46;95543.84;5054000;28;20024;-73
2023/10/06 10:01:34;;;;;;;11.40;6.13;;;;;;;20.98;45.01;95533.91;5083194;28;20068;-73
2023/10/06 10:04:00;;;;;;;8.93;5.63;;;;;;;21.06;45.08;95538.28;5085303;28;20035;-73
2023/10/06 10:06:25;;;;;;;10.43;5.45;;;;;;;21.11;44.68;95528.03;5061713;28;20032;-73
2023/10/06 10:08:51;;;;;;;8.27;5.32;;;;;;;21.06;44.55;95540.94;5087213;28;20031;-73
2023/10/06 10:11:29;;;;;;;11.02;5.80;;;;;;;21.14;44.66;95527.69;5069458;28;20036;-73
2023/10/06 10:14:15;;;;;;;9.63;5.65;;;;;;;21.15;45.44;95535.44;5067678;28;20067;-73
2023/10/06 10:17:08;;;;;;;8.80;5.72;;;;;;;20.86;44.45;95522.88;5072329;28;20064;-73
2023/10/06 10:19:33;;;;;;;9.13;4.93;;;;;;;20.70;44.69;95513.25;5066189;28;20032;-73
2023/10/06 10:21:59;;;;;;;9.60;5.57;;;;;;;20.66;45.20;95519.03;5069476;28;20036;-74
2023/10/06 10:24:25;;;;;;;10.00;5.78;;;;;;;20.87;44.92;95524.56;5067564;28;20406;-72
2023/10/06 10:26:50;;;;;;;7.13;5.32;;;;;;;20.93;44.35;95515.13;5077518;28;20564;-74
2023/10/06 10:29:16;;;;;;;9.07;5.53;;;;;;;20.88;44.26;95522.72;5081894;28;20028;-70
2023/10/06 10:31:47;;;;;;;8.30;6.00;;;;;;;20.91;43.82;95514.47;5074084;28;20074;-71
2023/10/06 10:34:20;;;;;;;8.40;5.15;;;;;;;20.81;43.24;95505.94;5069104;28;20291;-71
2023/10/06 10:37:13;;;;;;;8.90;5.22;;;;;;;20.78;44.17;95501.81;5069796;28;20047;-71
2023/10/06 10:39:50;;;;;;;11.68;5.53;;;;;;;20.92;44.14;95494.97;5055703;28;20020;-71
2023/10/06 10:42:23;;;;;;;9.63;5.47;;;;;;;20.92;44.42;95487.03;5081671;28;20427;-71
2023/10/06 10:44:48;;;;;;;7.90;5.13;;;;;;;20.96;43.94;95489.19;5088072;28;20028;-71
2023/10/06 10:47:16;;;;;;;7.20;5.28;;;;;;;20.97;43.65;95479.44;5088459;28;20032;-72
2023/10/06 10:49:44;;;;;;;7.70;5.47;;;;;;;21.18;43.15;95484.09;5071586;28;20024;-71
2023/10/06 10:52:10;;;;;;;11.82;5.22;;;;;;;20.94;43.12;95448.91;5088321;28;20032;-72
2023/10/06 10:54:36;;;;;;;7.30;5.43;;;;;;;21.02;42.13;95487.66;5085696;28;20038;-71
2023/10/06 10:57:14;;;;;;;7.47;5.07;;;;;;;21.07;42.13;95485.31;5059633;28;20032;-72
2023/10/06 11:02:59;;;;;;;7.60;5.47;;;;;;;21.03;42.70;95470.81;5085901;28;20043;-71
2023/10/06 11:05:26;;;;;;;6.28;5.10;;;;;;;20.97;41.86;95476.78;5085276;28;20039;-70
2023/10/06 11:07:55;;;;;;;7.65;4.80;;;;;;;21.00;41.34;95463.22;5070262;28;20056;-71
2023/10/06 11:10:23;;;;;;;9.10;5.40;;;;;;;20.93;41.73;95460.47;5073003;28;20059;-72
2023/10/06 11:12:50;;;;;;;7.68;5.35;;;;;;;20.87;41.48;95463.81;5082952;28;20020;-71
2023/10/06 11:15:27;;;;;;;7.90;4.97;;;;;;;20.81;41.36;95459.25;5071570;28;20058;-71
2023/10/06 11:17:58;;;;;;;6.30;4.75;;;;;;;20.78;41.19;95464.84;5088858;28;20440;-70
2023/10/06 11:20:25;;;;;;;;;;;;;;;20.91;40.13;95464.28;5086771;28;20093;-71
2023/10/06 11:23:01;;;;;;;9.50;4.70;;;;;;;20.72;40.69;95445.25;5087712;28;20402;-71
2023/10/06 11:25:27;;;;;;;7.95;4.85;;;;;;;20.72;40.05;95457.63;5071116;28;20430;-71
2023/10/06 11:28:04;;;;;;;8.60;4.63;;;;;;;20.84;40.32;95455.41;5081277;28;20016;-71
2023/10/06 11:30:32;;;;;;;8.20;4.55;;;;;;;20.83;41.04;95445.84;5082620;28;20040;-71
2023/10/06 11:33:02;;;;;;;8.40;4.95;;;;;;;20.81;41.91;95453.13;5059448;28;20024;-72
2023/10/06 11:35:27;;;;;;;7.63;4.82;;;;;;;20.87;40.53;95442.72;5043854;28;20032;-71
2023/10/06 11:37:53;;;;;;;6.07;4.50;;;;;;;20.88;40.37;95449.63;5065999;28;20039;-71
2023/10/06 11:40:21;;;;;;;5.85;4.35;;;;;;;21.05;40.28;95442.41;5085440;28;20059;-70
2023/10/06 11:42:47;;;;;;;6.90;4.47;;;;;;;21.10;40.09;95452.44;5069654;28;20032;-71
2023/10/06 11:45:24;;;;;;;7.75;4.40;;;;;;;21.20;40.54;95451.22;5083836;28;20028;-71